sensor_id;sensor_type;location;lat;lon;timestamp;P1;durP1;ratioP1;P2;durP2;ratioP2
16975;SDS011;8604;48.148;-1.786;2022-10-12T00:18:17;8.97;;;4.97;;
16975;SDS011;8604;48.148;-1.786;2022-10-12T00:20:46;8.37;;;5.23;;
16975;SDS011;8604;48.148;-1.786;2022-10-12T00:23:15;9.17;;;5.03;;
16975;SDS011;8604;48.148;-1.786;2022-10-12T00:25:44;8.60;;;4.73;;
16975;SDS011;8604;48.148;-1.786;2022-10-12T00:28:13;9.37;;;5.13;;
16975;SDS011;8604;48.148;-1.786;2022-10-12T00:30:42;8.07;;;4.73;;
16975;SDS011;8604;48.148;-1.786;2022-10-12T00:33:11;8.00;;;4.90;;
16975;SDS011;8604;48.148;-1.786;2022-10-12T00:35:42;7.30;;;4.80;;
16975;SDS011;8604;48.148;-1.786;2022-10-12T00:38:11;9.80;;;4.97;;
16975;SDS011;8604;48.148;-1.786;2022-10-12T00:40:40;9.00;;;4.77;;
16975;SDS011;8604;48.148;-1.786;2022-10-12T00:45:56;9.73;;;5.10;;
16975;SDS011;8604;48.148;-1.786;2022-10-12T00:48:26;7.67;;;4.60;;
16975;SDS011;8604;48.148;-1.786;2022-10-12T00:50:57;8.17;;;4.77;;
16975;SDS011;8604;48.148;-1.786;2022-10-12T00:53:33;9.27;;;4.70;;
16975;SDS011;8604;48.148;-1.786;2022-10-12T00:56:09;8.77;;;4.60;;
16975;SDS011;8604;48.148;-1.786;2022-10-12T00:58:43;7.60;;;4.50;;
16975;SDS011;8604;48.148;-1.786;2022-10-12T01:01:16;8.73;;;4.70;;
16975;SDS011;8604;48.148;-1.786;2022-10-12T01:04:00;9.20;;;4.70;;
16975;SDS011;8604;48.148;-1.786;2022-10-12T01:15:50;9.87;;;5.00;;
16975;SDS011;8604;48.148;-1.786;2022-10-12T01:18:26;8.00;;;4.73;;
16975;SDS011;8604;48.148;-1.786;2022-10-12T01:55:37;7.70;;;4.10;;
16975;SDS011;8604;48.148;-1.786;2022-10-12T04:08:21;6.63;;;3.50;;
16975;SDS011;8604;48.148;-1.786;2022-10-12T04:10:50;8.80;;;3.47;;
16975;SDS011;8604;48.148;-1.786;2022-10-12T04:13:19;5.83;;;3.13;;
16975;SDS011;8604;48.148;-1.786;2022-10-12T04:15:48;7.10;;;3.60;;
16975;SDS011;8604;48.148;-1.786;2022-10-12T04:18:17;5.93;;;3.13;;
16975;SDS011;8604;48.148;-1.786;2022-10-12T04:20:46;7.43;;;3.60;;
16975;SDS011;8604;48.148;-1.786;2022-10-12T04:23:17;5.83;;;3.17;;
16975;SDS011;8604;48.148;-1.786;2022-10-12T04:25:48;5.67;;;3.40;;
16975;SDS011;8604;48.148;-1.786;2022-10-12T04:28:17;8.47;;;3.83;;
16975;SDS011;8604;48.148;-1.786;2022-10-12T04:30:46;7.10;;;3.60;;
16975;SDS011;8604;48.148;-1.786;2022-10-12T04:33:15;5.60;;;3.40;;
16975;SDS011;8604;48.148;-1.786;2022-10-12T04:35:43;7.13;;;3.47;;
16975;SDS011;8604;48.148;-1.786;2022-10-12T04:38:16;7.63;;;3.37;;
16975;SDS011;8604;48.148;-1.786;2022-10-12T04:40:48;7.27;;;3.47;;
16975;SDS011;8604;48.148;-1.786;2022-10-12T04:43:17;8.00;;;3.77;;
16975;SDS011;8604;48.148;-1.786;2022-10-12T04:45:52;7.53;;;3.67;;
16975;SDS011;8604;48.148;-1.786;2022-10-12T04:48:22;7.67;;;3.90;;
16975;SDS011;8604;48.148;-1.786;2022-10-12T04:50:52;8.67;;;3.80;;
16975;SDS011;8604;48.148;-1.786;2022-10-12T04:53:24;6.77;;;4.00;;
16975;SDS011;8604;48.148;-1.786;2022-10-12T04:55:52;9.30;;;4.17;;
16975;SDS011;8604;48.148;-1.786;2022-10-12T04:58:21;5.73;;;3.63;;
16975;SDS011;8604;48.148;-1.786;2022-10-12T05:00:50;7.23;;;3.47;;
16975;SDS011;8604;48.148;-1.786;2022-10-12T05:03:19;6.93;;;3.60;;
16975;SDS011;8604;48.148;-1.786;2022-10-12T05:05:47;6.50;;;3.50;;
16975;SDS011;8604;48.148;-1.786;2022-10-12T05:08:16;5.90;;;3.30;;
16975;SDS011;8604;48.148;-1.786;2022-10-12T05:10:45;6.73;;;3.50;;
16975;SDS011;8604;48.148;-1.786;2022-10-12T05:13:14;6.97;;;3.70;;
16975;SDS011;8604;48.148;-1.786;2022-10-12T05:18:26;8.10;;;3.70;;
16975;SDS011;8604;48.148;-1.786;2022-10-12T05:21:09;8.77;;;3.50;;
16975;SDS011;8604;48.148;-1.786;2022-10-12T05:23:37;6.87;;;3.90;;
16975;SDS011;8604;48.148;-1.786;2022-10-12T05:26:07;7.33;;;3.33;;
16975;SDS011;8604;48.148;-1.786;2022-10-12T05:28:50;6.27;;;3.63;;
16975;SDS011;8604;48.148;-1.786;2022-10-12T05:31:18;8.03;;;3.93;;
16975;SDS011;8604;48.148;-1.786;2022-10-12T05:33:47;7.37;;;3.63;;
16975;SDS011;8604;48.148;-1.786;2022-10-12T05:36:15;8.07;;;3.87;;
16975;SDS011;8604;48.148;-1.786;2022-10-12T05:38:44;6.73;;;3.70;;
16975;SDS011;8604;48.148;-1.786;2022-10-12T05:41:13;7.60;;;3.53;;
16975;SDS011;8604;48.148;-1.786;2022-10-12T05:43:42;9.13;;;4.13;;
16975;SDS011;8604;48.148;-1.786;2022-10-12T05:49:46;6.13;;;3.47;;
16975;SDS011;8604;48.148;-1.786;2022-10-12T05:52:16;6.67;;;3.40;;
16975;SDS011;8604;48.148;-1.786;2022-10-12T05:54:56;8.43;;;3.87;;
16975;SDS011;8604;48.148;-1.786;2022-10-12T05:57:33;8.33;;;3.77;;
16975;SDS011;8604;48.148;-1.786;2022-10-12T06:00:03;6.07;;;3.30;;
16975;SDS011;8604;48.148;-1.786;2022-10-12T06:02:37;6.07;;;3.50;;
16975;SDS011;8604;48.148;-1.786;2022-10-12T06:05:08;6.77;;;3.70;;
16975;SDS011;8604;48.148;-1.786;2022-10-12T06:07:51;7.10;;;3.70;;
16975;SDS011;8604;48.148;-1.786;2022-10-12T06:10:21;6.07;;;3.60;;
16975;SDS011;8604;48.148;-1.786;2022-10-12T06:12:57;7.90;;;3.70;;
16975;SDS011;8604;48.148;-1.786;2022-10-12T06:15:25;7.47;;;3.77;;
16975;SDS011;8604;48.148;-1.786;2022-10-12T06:17:58;7.57;;;3.50;;
16975;SDS011;8604;48.148;-1.786;2022-10-12T06:20:27;7.73;;;4.00;;
16975;SDS011;8604;48.148;-1.786;2022-10-12T06:22:58;8.20;;;4.10;;
16975;SDS011;8604;48.148;-1.786;2022-10-12T06:25:28;8.03;;;3.93;;
16975;SDS011;8604;48.148;-1.786;2022-10-12T06:28:01;9.10;;;4.70;;
16975;SDS011;8604;48.148;-1.786;2022-10-12T06:30:30;7.27;;;4.17;;
16975;SDS011;8604;48.148;-1.786;2022-10-12T06:33:05;6.53;;;4.20;;
16975;SDS011;8604;48.148;-1.786;2022-10-12T06:35:34;7.13;;;4.07;;
16975;SDS011;8604;48.148;-1.786;2022-10-12T06:38:04;8.43;;;4.43;;
16975;SDS011;8604;48.148;-1.786;2022-10-12T06:40:37;7.60;;;4.07;;
16975;SDS011;8604;48.148;-1.786;2022-10-12T06:43:07;9.40;;;3.80;;
16975;SDS011;8604;48.148;-1.786;2022-10-12T06:45:38;7.40;;;4.03;;
16975;SDS011;8604;48.148;-1.786;2022-10-12T06:48:07;9.23;;;4.10;;
16975;SDS011;8604;48.148;-1.786;2022-10-12T06:50:46;8.33;;;4.10;;
16975;SDS011;8604;48.148;-1.786;2022-10-12T06:53:15;7.43;;;3.93;;
16975;SDS011;8604;48.148;-1.786;2022-10-12T06:56:00;7.93;;;4.23;;
16975;SDS011;8604;48.148;-1.786;2022-10-12T07:01:48;7.17;;;4.00;;
16975;SDS011;8604;48.148;-1.786;2022-10-12T07:04:18;8.13;;;3.90;;
16975;SDS011;8604;48.148;-1.786;2022-10-12T07:06:48;7.50;;;3.97;;
16975;SDS011;8604;48.148;-1.786;2022-10-12T07:09:18;6.77;;;3.20;;
16975;SDS011;8604;48.148;-1.786;2022-10-12T07:12:02;8.70;;;4.20;;
16975;SDS011;8604;48.148;-1.786;2022-10-12T07:14:31;6.67;;;3.80;;
16975;SDS011;8604;48.148;-1.786;2022-10-12T07:17:02;8.93;;;4.57;;
16975;SDS011;8604;48.148;-1.786;2022-10-12T07:19:31;7.57;;;4.30;;
16975;SDS011;8604;48.148;-1.786;2022-10-12T07:22:00;7.10;;;3.80;;
16975;SDS011;8604;48.148;-1.786;2022-10-12T07:34:20;7.47;;;4.10;;
16975;SDS011;8604;48.148;-1.786;2022-10-12T07:36:49;7.07;;;3.80;;
16975;SDS011;8604;48.148;-1.786;2022-10-12T07:39:25;8.20;;;4.07;;
16975;SDS011;8604;48.148;-1.786;2022-10-12T07:41:56;7.43;;;3.60;;
16975;SDS011;8604;48.148;-1.786;2022-10-12T07:44:24;7.77;;;3.73;;
16975;SDS011;8604;48.148;-1.786;2022-10-12T07:46:53;8.03;;;3.50;;
16975;SDS011;8604;48.148;-1.786;2022-10-12T07:52:07;7.30;;;3.60;;
16975;SDS011;8604;48.148;-1.786;2022-10-12T07:58:46;6.33;;;3.67;;
16975;SDS011;8604;48.148;-1.786;2022-10-12T08:01:19;7.53;;;3.70;;
16975;SDS011;8604;48.148;-1.786;2022-10-12T08:03:49;7.10;;;3.70;;
16975;SDS011;8604;48.148;-1.786;2022-10-12T08:06:28;8.83;;;3.90;;
16975;SDS011;8604;48.148;-1.786;2022-10-12T08:08:59;9.87;;;4.10;;
16975;SDS011;8604;48.148;-1.786;2022-10-12T08:11:29;7.20;;;3.50;;
16975;SDS011;8604;48.148;-1.786;2022-10-12T08:13:58;9.70;;;4.30;;
16975;SDS011;8604;48.148;-1.786;2022-10-12T08:16:27;10.13;;;3.80;;
16975;SDS011;8604;48.148;-1.786;2022-10-12T08:18:55;7.67;;;3.87;;
16975;SDS011;8604;48.148;-1.786;2022-10-12T08:21:24;9.07;;;4.27;;
16975;SDS011;8604;48.148;-1.786;2022-10-12T08:23:55;7.00;;;3.83;;
16975;SDS011;8604;48.148;-1.786;2022-10-12T08:26:24;7.07;;;4.03;;
16975;SDS011;8604;48.148;-1.786;2022-10-12T08:28:53;7.03;;;3.87;;
16975;SDS011;8604;48.148;-1.786;2022-10-12T08:31:22;8.17;;;3.83;;
16975;SDS011;8604;48.148;-1.786;2022-10-12T08:33:51;8.10;;;4.43;;
16975;SDS011;8604;48.148;-1.786;2022-10-12T08:36:20;7.73;;;4.00;;
16975;SDS011;8604;48.148;-1.786;2022-10-12T08:38:51;11.80;;;5.17;;
16975;SDS011;8604;48.148;-1.786;2022-10-12T08:41:32;10.67;;;5.53;;
16975;SDS011;8604;48.148;-1.786;2022-10-12T08:44:21;10.73;;;5.70;;
16975;SDS011;8604;48.148;-1.786;2022-10-12T08:47:03;11.97;;;5.93;;
16975;SDS011;8604;48.148;-1.786;2022-10-12T08:49:38;9.37;;;5.83;;
16975;SDS011;8604;48.148;-1.786;2022-10-12T08:52:19;9.30;;;5.50;;
16975;SDS011;8604;48.148;-1.786;2022-10-12T08:59:07;11.00;;;5.90;;
16975;SDS011;8604;48.148;-1.786;2022-10-12T09:01:43;11.83;;;6.07;;
16975;SDS011;8604;48.148;-1.786;2022-10-12T09:04:29;10.07;;;5.80;;
16975;SDS011;8604;48.148;-1.786;2022-10-12T09:07:10;10.73;;;5.83;;
16975;SDS011;8604;48.148;-1.786;2022-10-12T09:09:51;10.10;;;6.03;;
16975;SDS011;8604;48.148;-1.786;2022-10-12T09:14:02;13.17;;;6.50;;
16975;SDS011;8604;48.148;-1.786;2022-10-12T10:35:18;13.43;;;9.40;;
16975;SDS011;8604;48.148;-1.786;2022-10-12T10:38:16;14.38;;;9.43;;
16975;SDS011;8604;48.148;-1.786;2022-10-12T15:14:19;10.53;;;5.13;;
16975;SDS011;8604;48.148;-1.786;2022-10-12T15:16:48;10.70;;;4.80;;
16975;SDS011;8604;48.148;-1.786;2022-10-12T15:20:07;11.80;;;5.57;;
16975;SDS011;8604;48.148;-1.786;2022-10-12T15:22:37;13.47;;;5.27;;
16975;SDS011;8604;48.148;-1.786;2022-10-12T15:25:08;10.43;;;5.10;;
16975;SDS011;8604;48.148;-1.786;2022-10-12T15:27:45;9.30;;;5.10;;
16975;SDS011;8604;48.148;-1.786;2022-10-12T15:30:16;11.67;;;5.47;;
16975;SDS011;8604;48.148;-1.786;2022-10-12T15:32:45;10.60;;;5.50;;
16975;SDS011;8604;48.148;-1.786;2022-10-12T15:35:17;9.33;;;4.63;;
16975;SDS011;8604;48.148;-1.786;2022-10-12T15:37:50;11.60;;;4.90;;
16975;SDS011;8604;48.148;-1.786;2022-10-12T15:40:22;10.33;;;4.90;;
16975;SDS011;8604;48.148;-1.786;2022-10-12T15:42:54;8.77;;;4.47;;
16975;SDS011;8604;48.148;-1.786;2022-10-12T15:45:24;9.57;;;4.43;;
16975;SDS011;8604;48.148;-1.786;2022-10-12T15:47:55;10.00;;;5.13;;
16975;SDS011;8604;48.148;-1.786;2022-10-12T15:50:24;8.70;;;4.53;;
16975;SDS011;8604;48.148;-1.786;2022-10-12T15:52:55;10.67;;;5.00;;
16975;SDS011;8604;48.148;-1.786;2022-10-12T15:55:25;9.70;;;4.83;;
16975;SDS011;8604;48.148;-1.786;2022-10-12T15:57:55;10.23;;;5.07;;
16975;SDS011;8604;48.148;-1.786;2022-10-12T16:00:26;10.60;;;5.00;;
16975;SDS011;8604;48.148;-1.786;2022-10-12T16:02:59;10.43;;;4.67;;
16975;SDS011;8604;48.148;-1.786;2022-10-12T16:05:30;10.47;;;4.90;;
16975;SDS011;8604;48.148;-1.786;2022-10-12T16:08:01;9.47;;;5.13;;
16975;SDS011;8604;48.148;-1.786;2022-10-12T16:10:33;11.50;;;5.70;;
16975;SDS011;8604;48.148;-1.786;2022-10-12T16:13:03;10.43;;;5.40;;
16975;SDS011;8604;48.148;-1.786;2022-10-12T16:15:35;9.90;;;5.07;;
16975;SDS011;8604;48.148;-1.786;2022-10-12T16:18:04;11.33;;;4.90;;
16975;SDS011;8604;48.148;-1.786;2022-10-12T16:20:33;9.73;;;5.10;;
16975;SDS011;8604;48.148;-1.786;2022-10-12T16:23:04;11.23;;;5.13;;
16975;SDS011;8604;48.148;-1.786;2022-10-12T16:25:35;15.20;;;6.07;;
16975;SDS011;8604;48.148;-1.786;2022-10-12T16:28:04;10.57;;;4.97;;
16975;SDS011;8604;48.148;-1.786;2022-10-12T16:33:46;12.63;;;5.23;;
16975;SDS011;8604;48.148;-1.786;2022-10-12T16:36:15;10.90;;;4.50;;
16975;SDS011;8604;48.148;-1.786;2022-10-12T16:38:44;8.53;;;4.30;;
16975;SDS011;8604;48.148;-1.786;2022-10-12T16:41:14;10.57;;;5.80;;
16975;SDS011;8604;48.148;-1.786;2022-10-12T16:43:44;11.67;;;7.03;;
16975;SDS011;8604;48.148;-1.786;2022-10-12T16:46:13;7.27;;;4.60;;
16975;SDS011;8604;48.148;-1.786;2022-10-12T16:48:41;9.30;;;4.60;;
16975;SDS011;8604;48.148;-1.786;2022-10-12T16:51:12;7.70;;;4.50;;
16975;SDS011;8604;48.148;-1.786;2022-10-12T16:53:41;9.50;;;4.20;;
16975;SDS011;8604;48.148;-1.786;2022-10-12T16:57:11;8.40;;;4.00;;
16975;SDS011;8604;48.148;-1.786;2022-10-12T17:09:11;9.87;;;3.33;;
16975;SDS011;8604;48.148;-1.786;2022-10-12T17:11:40;7.73;;;3.30;;
16975;SDS011;8604;48.148;-1.786;2022-10-12T17:14:15;9.27;;;3.40;;
16975;SDS011;8604;48.148;-1.786;2022-10-12T17:16:44;9.33;;;3.50;;
16975;SDS011;8604;48.148;-1.786;2022-10-12T17:19:16;9.97;;;4.10;;
16975;SDS011;8604;48.148;-1.786;2022-10-12T17:21:47;9.80;;;3.50;;
16975;SDS011;8604;48.148;-1.786;2022-10-12T17:24:18;7.47;;;3.50;;
16975;SDS011;8604;48.148;-1.786;2022-10-12T17:26:50;8.97;;;4.03;;
16975;SDS011;8604;48.148;-1.786;2022-10-12T17:29:19;9.67;;;3.20;;
16975;SDS011;8604;48.148;-1.786;2022-10-12T17:31:49;8.77;;;4.00;;
16975;SDS011;8604;48.148;-1.786;2022-10-12T17:34:20;10.03;;;3.60;;
16975;SDS011;8604;48.148;-1.786;2022-10-12T17:36:50;9.93;;;3.67;;
16975;SDS011;8604;48.148;-1.786;2022-10-12T17:39:22;9.67;;;3.30;;
16975;SDS011;8604;48.148;-1.786;2022-10-12T17:41:52;10.40;;;3.80;;
16975;SDS011;8604;48.148;-1.786;2022-10-12T17:44:21;8.20;;;3.40;;
16975;SDS011;8604;48.148;-1.786;2022-10-12T17:46:52;8.67;;;3.70;;
16975;SDS011;8604;48.148;-1.786;2022-10-12T17:49:22;9.80;;;4.00;;
16975;SDS011;8604;48.148;-1.786;2022-10-12T17:51:51;8.63;;;3.73;;
16975;SDS011;8604;48.148;-1.786;2022-10-12T17:57:15;10.33;;;4.10;;
16975;SDS011;8604;48.148;-1.786;2022-10-12T17:59:47;7.87;;;3.70;;
16975;SDS011;8604;48.148;-1.786;2022-10-12T18:02:16;7.63;;;3.63;;
16975;SDS011;8604;48.148;-1.786;2022-10-12T18:04:45;11.60;;;4.00;;
16975;SDS011;8604;48.148;-1.786;2022-10-12T18:07:14;7.47;;;3.80;;
16975;SDS011;8604;48.148;-1.786;2022-10-12T18:09:55;7.30;;;3.60;;
16975;SDS011;8604;48.148;-1.786;2022-10-12T21:32:06;7.93;;;2.63;;
16975;SDS011;8604;48.148;-1.786;2022-10-12T21:34:34;9.07;;;3.10;;
16975;SDS011;8604;48.148;-1.786;2022-10-12T21:37:03;10.00;;;3.10;;
16975;SDS011;8604;48.148;-1.786;2022-10-12T21:39:32;10.03;;;2.80;;
16975;SDS011;8604;48.148;-1.786;2022-10-12T21:42:00;7.53;;;2.60;;
16975;SDS011;8604;48.148;-1.786;2022-10-12T21:44:29;8.73;;;2.90;;
16975;SDS011;8604;48.148;-1.786;2022-10-12T21:46:57;5.77;;;2.37;;
16975;SDS011;8604;48.148;-1.786;2022-10-12T21:49:27;6.87;;;2.83;;
16975;SDS011;8604;48.148;-1.786;2022-10-12T21:51:55;6.23;;;2.57;;
16975;SDS011;8604;48.148;-1.786;2022-10-12T21:54:24;9.17;;;2.50;;
16975;SDS011;8604;48.148;-1.786;2022-10-12T21:56:52;5.47;;;2.20;;
16975;SDS011;8604;48.148;-1.786;2022-10-12T21:59:21;6.27;;;2.30;;
16975;SDS011;8604;48.148;-1.786;2022-10-12T22:01:50;5.80;;;2.40;;
16975;SDS011;8604;48.148;-1.786;2022-10-12T22:04:18;5.93;;;2.50;;
16975;SDS011;8604;48.148;-1.786;2022-10-12T22:06:48;7.57;;;2.80;;
16975;SDS011;8604;48.148;-1.786;2022-10-12T22:09:16;7.90;;;2.40;;
16975;SDS011;8604;48.148;-1.786;2022-10-12T22:11:44;6.97;;;2.30;;
16975;SDS011;8604;48.148;-1.786;2022-10-12T22:14:14;9.93;;;2.50;;
16975;SDS011;8604;48.148;-1.786;2022-10-12T22:16:44;6.17;;;2.33;;
16975;SDS011;8604;48.148;-1.786;2022-10-12T22:19:13;9.80;;;3.00;;
16975;SDS011;8604;48.148;-1.786;2022-10-12T22:21:44;10.70;;;3.07;;
16975;SDS011;8604;48.148;-1.786;2022-10-12T22:24:14;7.33;;;2.50;;
16975;SDS011;8604;48.148;-1.786;2022-10-12T22:26:43;7.83;;;2.70;;
16975;SDS011;8604;48.148;-1.786;2022-10-12T22:29:11;8.00;;;3.07;;
16975;SDS011;8604;48.148;-1.786;2022-10-12T22:31:40;6.80;;;2.70;;
16975;SDS011;8604;48.148;-1.786;2022-10-12T22:34:11;9.80;;;2.80;;
16975;SDS011;8604;48.148;-1.786;2022-10-12T22:36:41;8.60;;;2.90;;
16975;SDS011;8604;48.148;-1.786;2022-10-12T22:39:09;9.13;;;3.20;;
16975;SDS011;8604;48.148;-1.786;2022-10-12T22:41:40;8.70;;;2.80;;
16975;SDS011;8604;48.148;-1.786;2022-10-12T22:44:09;7.73;;;2.70;;
16975;SDS011;8604;48.148;-1.786;2022-10-12T22:46:37;9.63;;;3.23;;
16975;SDS011;8604;48.148;-1.786;2022-10-12T22:49:05;7.10;;;2.83;;
16975;SDS011;8604;48.148;-1.786;2022-10-12T22:51:34;7.67;;;2.90;;
16975;SDS011;8604;48.148;-1.786;2022-10-12T22:54:05;6.70;;;2.70;;
16975;SDS011;8604;48.148;-1.786;2022-10-12T22:56:41;9.00;;;3.20;;
16975;SDS011;8604;48.148;-1.786;2022-10-12T22:59:10;6.77;;;3.00;;
16975;SDS011;8604;48.148;-1.786;2022-10-12T23:01:40;8.67;;;3.30;;
16975;SDS011;8604;48.148;-1.786;2022-10-12T23:04:09;10.03;;;2.90;;
16975;SDS011;8604;48.148;-1.786;2022-10-12T23:06:37;9.60;;;3.07;;
16975;SDS011;8604;48.148;-1.786;2022-10-12T23:09:05;7.43;;;2.70;;
16975;SDS011;8604;48.148;-1.786;2022-10-12T23:11:34;6.83;;;2.87;;
16975;SDS011;8604;48.148;-1.786;2022-10-12T23:14:17;7.13;;;3.17;;
16975;SDS011;8604;48.148;-1.786;2022-10-12T23:16:46;8.57;;;3.03;;
16975;SDS011;8604;48.148;-1.786;2022-10-12T23:19:14;6.47;;;2.60;;
16975;SDS011;8604;48.148;-1.786;2022-10-12T23:21:42;6.67;;;2.97;;
16975;SDS011;8604;48.148;-1.786;2022-10-12T23:24:11;7.57;;;2.83;;
16975;SDS011;8604;48.148;-1.786;2022-10-12T23:26:39;6.80;;;2.90;;
16975;SDS011;8604;48.148;-1.786;2022-10-12T23:29:07;8.17;;;2.97;;
16975;SDS011;8604;48.148;-1.786;2022-10-12T23:31:37;7.87;;;2.90;;
16975;SDS011;8604;48.148;-1.786;2022-10-12T23:34:05;8.63;;;2.93;;
16975;SDS011;8604;48.148;-1.786;2022-10-12T23:36:35;8.23;;;2.70;;
16975;SDS011;8604;48.148;-1.786;2022-10-12T23:39:04;7.10;;;3.10;;
16975;SDS011;8604;48.148;-1.786;2022-10-12T23:41:32;7.53;;;3.10;;
16975;SDS011;8604;48.148;-1.786;2022-10-12T23:44:01;6.77;;;2.80;;
16975;SDS011;8604;48.148;-1.786;2022-10-12T23:46:29;6.70;;;3.00;;
16975;SDS011;8604;48.148;-1.786;2022-10-12T23:48:59;7.87;;;2.93;;
16975;SDS011;8604;48.148;-1.786;2022-10-12T23:51:28;6.03;;;2.90;;
16975;SDS011;8604;48.148;-1.786;2022-10-12T23:53:56;6.73;;;2.80;;
16975;SDS011;8604;48.148;-1.786;2022-10-12T23:56:24;6.33;;;2.60;;
16975;SDS011;8604;48.148;-1.786;2022-10-12T23:58:53;7.80;;;3.00;;
